Time;durP1;ratioP1;P1;durP2;ratioP2;P2;SDS_P1;SDS_P2;PMS_P1;PMS_P2;Temp;Humidity;BMP_temperature;BMP_pressure;BME280_temperature;BME280_humidity;BME280_pressure;Samples;Min_cycle;Max_cycle;Signal;HPM_P1;HPM_P2
2022/05/20 00:00:26;;;;;;;;;;;;;;;16.16;36.16;100333.90;107856;1268;123632;-68
2022/05/20 00:03:05;;;;;;;;;;;;;;;16.14;36.41;100329.28;107941;1268;108951;-68
2022/05/20 00:05:36;;;;;;;;;;;;;;;16.10;36.51;100326.52;107818;1268;124253;-68
2022/05/20 00:08:07;;;;;;;;;;;;;;;16.06;36.54;100324.45;107916;1268;94794;-68
2022/05/20 00:10:38;;;;;;;;;;;;;;;16.02;36.68;100324.87;107769;1268;123841;-68
2022/05/20 00:13:09;;;;;;;;;;;;;;;15.98;36.62;100321.04;107643;1268;111175;-68
2022/05/20 00:15:40;;;;;;;;;;;;;;;15.93;36.82;100319.19;107952;1268;107646;-68
2022/05/20 00:18:11;;;;;;;;;;;;;;;15.89;36.89;100318.70;107576;1268;125520;-68
2022/05/20 00:20:41;;;;;;;;;;;;;;;15.87;36.85;100321.63;107932;1268;94740;-68
2022/05/20 00:23:12;;;;;;;;;;;;;;;15.85;36.92;100324.52;107222;1268;124316;-68
2022/05/20 00:25:48;;;;;;;;;;;;;;;15.84;36.94;100329.15;106370;1268;110295;-68
2022/05/20 00:28:21;;;;;;;;;;;;;;;15.82;37.02;100324.16;106299;1268;124195;-67
2022/05/20 00:30:53;;;;;;;;;;;;;;;15.80;37.23;100316.75;106430;1268;108257;-68
2022/05/20 00:33:24;;;;;;;;;;;;;;;15.76;37.35;100311.83;106973;1271;96373;-68
2022/05/20 00:35:54;;;;;;;;;;;;;;;15.72;37.38;100304.01;107859;1268;124558;-68
2022/05/20 00:38:26;;;;;;;;;;;;;;;15.69;37.36;100311.32;107929;1268;109936;-68
2022/05/20 00:40:57;;;;;;;;;;;;;;;15.67;37.42;100318.42;107810;1268;124117;-69
2022/05/20 00:43:36;;;;;;;;;;;;;;;15.65;37.46;100310.31;107892;1268;108075;-68
2022/05/20 00:46:09;;;;;;;;;;;;;;;15.61;37.64;100308.22;107892;1269;94700;-68
2022/05/20 00:48:40;;;;;;;;;;;;;;;15.58;37.65;100312.40;107962;1268;94822;-67
2022/05/20 00:51:13;;;;;;;;;;;;;;;15.56;37.69;100313.73;107941;1268;110460;-68
2022/05/20 00:53:47;;;;;;;;;;;;;;;15.54;37.75;100314.91;107843;1267;124033;-68
2022/05/20 00:56:20;;;;;;;;;;;;;;;15.53;37.88;100311.09;106968;1268;108300;-68
2022/05/20 00:58:52;;;;;;;;;;;;;;;15.50;37.83;100304.74;106358;1268;125403;-68
2022/05/20 01:01:23;;;;;;;;;;;;;;;15.48;38.00;100299.45;107080;1268;95155;-68
2022/05/20 01:03:55;;;;;;;;;;;;;;;15.45;38.10;100293.47;107908;1268;110053;-68
2022/05/20 01:06:25;;;;;;;;;;;;;;;15.42;38.17;100292.38;107529;1268;124431;-68
2022/05/20 01:08:56;;;;;;;;;;;;;;;15.39;38.21;100291.46;106791;1268;108682;-67
2022/05/20 01:43:04;;;;;;;;;;;;;;;15.01;39.49;100275.02;107077;1261;108231;-67
2022/05/20 01:45:36;;;;;;;;;;;;;;;14.99;39.62;100272.16;107681;1271;107734;-67
2022/05/20 01:48:13;;;;;;;;;;;;;;;14.94;39.66;100270.46;107216;1271;124275;-67
2022/05/20 01:50:48;;;;;;;;;;;;;;;14.91;39.78;100266.44;106276;1271;96468;-68
2022/05/20 01:53:25;;;;;;;;;;;;;;;14.87;39.87;100262.05;106185;1271;124692;-68
2022/05/20 01:55:58;;;;;;;;;;;;;;;14.84;40.12;100260.64;107038;1271;109041;-68
2022/05/20 01:58:32;;;;;;;;;;;;;;;14.78;40.05;100253.56;106166;1271;124312;-68
2022/05/20 02:01:04;;;;;;;;;;;;;;;14.74;40.56;100251.67;107834;1271;94466;-69
2022/05/20 02:03:38;;;;;;;;;;;;;;;14.69;40.44;100249.63;107871;1271;94711;-69
2022/05/20 02:06:12;;;;;;;;;;;;;;;14.66;40.63;100251.20;107731;1271;124740;-68
2022/05/20 02:08:43;;;;;;;;;;;;;;;14.63;40.76;100252.59;107877;1270;109938;-68
2022/05/20 02:11:17;;;;;;;;;;;;;;;14.58;40.94;100251.25;107723;1270;124221;-69
2022/05/20 02:13:51;;;;;;;;;;;;;;;14.53;41.03;100251.11;107830;1269;94732;-69
2022/05/20 02:16:25;;;;;;;;;;;;;;;14.48;41.11;100249.98;107769;1270;124139;-68
2022/05/20 02:19:00;;;;;;;;;;;;;;;14.45;41.23;100250.11;107869;1270;111096;-68
2022/05/20 02:21:32;;;;;;;;;;;;;;;14.42;41.54;100250.60;107879;1270;107736;-68
2022/05/20 02:24:05;;;;;;;;;;;;;;;14.38;41.57;100248.67;107780;1270;126111;-68
2022/05/20 02:26:39;;;;;;;;;;;;;;;14.35;41.59;100253.89;107846;1270;95104;-68
2022/05/20 02:29:12;;;;;;;;;;;;;;;14.33;41.67;100254.86;107776;1270;124298;-68
2022/05/20 02:31:44;;;;;;;;;;;;;;;14.32;41.70;100254.04;107840;1270;110129;-68
2022/05/20 02:34:15;;;;;;;;;;;;;;;14.30;41.89;100252.35;107850;1270;108765;-68
2022/05/20 02:36:45;;;;;;;;;;;;;;;14.28;42.06;100255.96;107872;1270;108886;-69
2022/05/20 02:39:16;;;;;;;;;;;;;;;14.25;42.23;100255.60;107847;1270;94673;-69
2022/05/20 02:41:47;;;;;;;;;;;;;;;14.24;42.27;100253.38;106554;1270;123996;-68
2022/05/20 02:44:17;;;;;;;;;;;;;;;14.21;42.49;100255.24;107852;1270;111262;-68
2022/05/20 02:46:48;;;;;;;;;;;;;;;14.20;42.26;100254.08;107753;1271;124729;-68
2022/05/20 02:49:19;;;;;;;;;;;;;;;14.21;42.35;100250.20;107807;1271;109112;-68
2022/05/20 02:51:49;;;;;;;;;;;;;;;14.21;42.53;100245.81;107857;1271;94935;-68
2022/05/20 02:54:19;;;;;;;;;;;;;;;14.21;42.47;100241.43;106792;1271;124040;-68
2022/05/20 02:56:50;;;;;;;;;;;;;;;14.22;42.51;100236.00;107277;1271;111132;-68
2022/05/20 03:04:56;;;;;;;;;;;;;;;14.22;42.64;100235.98;107745;1271;124212;-68
2022/05/20 03:07:27;;;;;;;;;;;;;;;14.23;42.80;100236.65;107857;1271;94905;-68
2022/05/20 03:09:58;;;;;;;;;;;;;;;14.22;42.86;100232.13;107798;1271;110913;-67
2022/05/20 03:12:29;;;;;;;;;;;;;;;14.22;42.98;100229.35;107745;1271;124131;-67
2022/05/20 03:14:59;;;;;;;;;;;;;;;14.18;42.92;100227.77;107831;1271;108873;-68
2022/05/20 03:17:30;;;;;;;;;;;;;;;14.17;42.88;100221.51;107719;1270;125042;-68
2022/05/20 03:20:01;;;;;;;;;;;;;;;14.17;43.06;100220.80;107863;1271;95247;-68
2022/05/20 03:22:32;;;;;;;;;;;;;;;14.17;43.25;100222.73;107743;1271;124555;-68
2022/05/20 03:25:04;;;;;;;;;;;;;;;14.15;43.22;100221.27;107855;1271;109148;-67
2022/05/20 03:27:34;;;;;;;;;;;;;;;14.15;43.32;100221.77;107832;1271;109052;-68
2022/05/20 03:30:06;;;;;;;;;;;;;;;14.18;43.33;100223.73;107722;1271;124565;-68
2022/05/20 03:32:36;;;;;;;;;;;;;;;14.20;43.33;100221.77;107830;1271;94785;-68
2022/05/20 03:35:08;;;;;;;;;;;;;;;14.20;43.39;100221.71;107778;1271;123889;-68
2022/05/20 03:37:38;;;;;;;;;;;;;;;14.20;43.39;100222.08;107849;1271;108897;-68
2022/05/20 03:40:10;;;;;;;;;;;;;;;14.19;43.19;100222.45;107814;1271;107643;-68
2022/05/20 03:42:40;;;;;;;;;;;;;;;14.23;43.42;100220.92;107740;1271;125691;-68
2022/05/20 03:45:12;;;;;;;;;;;;;;;14.23;43.46;100210.95;107829;1271;94623;-68
2022/05/20 03:47:42;;;;;;;;;;;;;;;14.26;43.37;100210.95;107760;1270;125030;-68
2022/05/20 03:50:12;;;;;;;;;;;;;;;14.28;43.40;100211.39;107474;1271;108523;-68
2022/05/20 03:52:44;;;;;;;;;;;;;;;14.29;43.56;100212.20;106159;1271;125399;-67
2022/05/20 03:55:14;;;;;;;;;;;;;;;14.32;43.25;100207.85;106187;1271;96474;-69
2022/05/20 03:57:44;;;;;;;;;;;;;;;14.36;43.26;100213.77;106241;1271;96427;-68
2022/05/20 04:00:17;;;;;;;;;;;;;;;14.39;43.32;100202.95;106100;1272;123971;-70
2022/05/20 04:02:47;;;;;;;;;;;;;;;14.41;43.19;100205.14;107880;1271;107588;-69
2022/05/20 04:05:18;;;;;;;;;;;;;;;14.40;43.30;100205.20;107689;1271;124125;-68
2022/05/20 04:07:48;;;;;;;;;;;;;;;14.41;43.25;100205.16;107809;1271;94864;-69
2022/05/20 04:10:18;;;;;;;;;;;;;;;14.40;43.28;100203.27;107820;1271;94776;-68
2022/05/20 04:12:49;;;;;;;;;;;;;;;14.42;43.31;100201.79;107814;1271;111089;-68
2022/05/20 04:15:19;;;;;;;;;;;;;;;14.44;43.28;100202.23;106393;1271;107711;-68
2022/05/20 04:17:50;;;;;;;;;;;;;;;14.48;43.21;100205.52;107685;1271;124904;-68
2022/05/20 04:20:20;;;;;;;;;;;;;;;14.52;43.20;100205.00;107851;1271;95301;-68
2022/05/20 04:22:50;;;;;;;;;;;;;;;14.56;42.99;100203.24;107774;1271;124882;-68
2022/05/20 04:25:21;;;;;;;;;;;;;;;14.64;43.07;100208.09;107852;1271;111209;-68
2022/05/20 04:27:51;;;;;;;;;;;;;;;14.72;42.86;100208.70;107860;1271;108887;-68
2022/05/20 04:30:22;;;;;;;;;;;;;;;14.80;42.78;100205.70;107745;1271;124199;-68
2022/05/20 04:32:52;;;;;;;;;;;;;;;14.86;42.71;100202.44;107828;1271;94461;-68
2022/05/20 04:35:24;;;;;;;;;;;;;;;14.92;42.69;100199.34;107794;1271;123969;-69
2022/05/20 04:37:54;;;;;;;;;;;;;;;14.99;42.50;100190.38;107312;1271;110562;-68
2022/05/20 04:40:25;;;;;;;;;;;;;;;15.08;42.43;100191.84;106138;1271;124344;-67
2022/05/20 04:48:33;;;;;;;;;;;;;;;15.65;41.77;100184.13;107297;1276;124376;-67
2022/05/20 04:51:04;;;;;;;;;;;;;;;15.78;41.61;100170.45;107558;1276;110138;-67
2022/05/20 04:56:30;;;;;;;;;;;;;;;16.04;41.07;100184.95;107017;1279;109038;-68
2022/05/20 04:59:02;;;;;;;;;;;;;;;16.25;40.80;100181.81;107086;1279;125094;-67
2022/05/20 05:01:33;;;;;;;;;;;;;;;16.55;40.49;100175.53;106398;1279;96580;-68
2022/05/20 05:04:04;;;;;;;;;;;;;;;16.85;40.25;100176.61;107207;1279;110152;-69
2022/05/20 05:06:35;;;;;;;;;;;;;;;17.23;39.66;100178.56;107102;1279;125025;-69
2022/05/20 05:09:05;;;;;;;;;;;;;;;17.59;39.00;100177.27;107084;1279;108860;-68
2022/05/20 05:11:36;;;;;;;;;;;;;;;17.88;38.59;100176.30;107085;1279;124315;-69
2022/05/20 05:14:08;;;;;;;;;;;;;;;18.16;38.16;100178.54;107205;1279;94915;-68
2022/05/20 05:16:39;;;;;;;;;;;;;;;18.42;37.77;100168.59;107112;1279;124346;-69
2022/05/20 05:19:10;;;;;;;;;;;;;;;18.59;37.56;100169.73;107174;1279;108960;-69
2022/05/20 05:21:40;;;;;;;;;;;;;;;18.77;37.18;100177.21;107176;1279;108941;-69
2022/05/20 05:24:11;;;;;;;;;;;;;;;18.90;36.68;100183.23;107300;1276;124142;-69
2022/05/20 05:26:42;;;;;;;;;;;;;;;18.97;36.39;100186.02;106212;1276;96578;-67
2022/05/20 05:29:12;;;;;;;;;;;;;;;19.03;36.20;100186.17;105857;1276;124022;-69
2022/05/20 05:31:43;;;;;;;;;;;;;;;19.08;35.83;100184.64;105965;1277;108924;-68
2022/05/20 05:34:13;;;;;;;;;;;;;;;19.08;35.65;100188.33;107741;1271;108727;-69
2022/05/20 05:36:44;;;;;;;;;;;;;;;19.18;35.36;100190.29;107748;1271;124146;-69
2022/05/20 05:39:14;;;;;;;;;;;;;;;19.30;35.09;100192.55;107842;1271;94683;-68
2022/05/20 05:41:45;;;;;;;;;;;;;;;19.46;34.96;100192.04;107283;1271;124654;-69
2022/05/20 05:44:15;;;;;;;;;;;;;;;19.78;34.78;100188.35;106319;1271;108757;-68
2022/05/20 05:46:45;;;;;;;;;;;;;;;20.07;34.29;100183.63;106151;1271;124571;-68
2022/05/20 05:49:16;;;;;;;;;;;;;;;20.44;33.67;100180.20;107854;1270;94676;-69
2022/05/20 05:51:47;;;;;;;;;;;;;;;20.86;33.28;100181.45;107872;1270;95094;-69
2022/05/20 05:54:18;;;;;;;;;;;;;;;21.25;32.94;100185.40;107411;1270;124511;-68
2022/05/20 05:56:48;;;;;;;;;;;;;;;21.47;32.34;100191.09;106340;1270;108992;-67
2022/05/20 05:59:19;;;;;;;;;;;;;;;21.43;32.23;100193.04;106137;1270;124276;-69
2022/05/20 06:01:49;;;;;;;;;;;;;;;21.31;32.07;100189.20;106303;1270;96478;-69
2022/05/20 06:04:20;;;;;;;;;;;;;;;21.22;32.30;100188.24;107768;1270;124026;-65
2022/05/20 06:06:50;;;;;;;;;;;;;;;21.36;32.41;100190.77;107670;1270;111224;-68
2022/05/20 06:09:20;;;;;;;;;;;;;;;22.49;31.57;100183.06;106333;1271;109221;-67
2022/05/20 06:11:51;;;;;;;;;;;;;;;24.00;30.22;100178.42;107780;1270;124277;-68
2022/05/20 06:14:22;;;;;;;;;;;;;;;25.46;28.65;100171.85;107875;1270;94613;-68
2022/05/20 06:16:52;;;;;;;;;;;;;;;26.73;27.25;100158.63;107780;1270;126160;-68
2022/05/20 06:19:22;;;;;;;;;;;;;;;27.28;26.14;100149.44;107861;1270;110893;-68
2022/05/20 06:21:53;;;;;;;;;;;;;;;27.54;25.65;100146.92;107866;1270;106627;-68
2022/05/20 06:24:28;;;;;;;;;;;;;;;27.77;25.49;100144.88;106705;1273;124227;-67
2022/05/20 06:26:58;;;;;;;;;;;;;;;27.82;24.90;100144.05;107481;1270;94970;-68
2022/05/20 06:29:29;;;;;;;;;;;;;;;27.46;24.72;100145.20;107754;1270;124427;-68
2022/05/20 06:31:59;;;;;;;;;;;;;;;26.92;25.25;100141.89;106929;1270;110705;-67
2022/05/20 06:39:48;;;;;;;;;;;;;;;26.57;25.55;100144.23;107777;1270;124751;-66
2022/05/20 06:40:14;;;;;;;;;;;;;;;25.55;26.35;100148.98;107847;1270;94632;-67
2022/05/20 06:42:44;;;;;;;;;;;;;;;24.98;26.67;100149.38;107884;1270;94679;-68
2022/05/20 06:45:16;;;;;;;;;;;;;;;24.44;27.17;100139.46;107853;1270;108106;-67
2022/05/20 06:47:47;;;;;;;;;;;;;;;24.01;27.69;100147.77;107417;1271;124149;-68
2022/05/20 06:50:18;;;;;;;;;;;;;;;23.65;28.25;100149.19;107547;1270;124220;-68
2022/05/20 06:52:49;;;;;;;;;;;;;;;23.40;28.67;100146.39;107836;1270;94680;-68
2022/05/20 06:55:20;;;;;;;;;;;;;;;23.18;29.05;100146.23;107693;1271;125366;-68
2022/05/20 06:57:51;;;;;;;;;;;;;;;23.09;29.31;100154.41;107426;1273;111024;-67
2022/05/20 07:00:22;;;;;;;;;;;;;;;22.98;29.54;100152.41;106407;1271;109306;-68
2022/05/20 07:02:53;;;;;;;;;;;;;;;22.82;29.82;100153.55;106427;1271;109058;-68
2022/05/20 07:05:24;;;;;;;;;;;;;;;22.64;30.14;100156.83;106328;1271;96520;-66
2022/05/20 07:07:56;;;;;;;;;;;;;;;22.44;30.54;100152.83;107199;1271;124445;-67
2022/05/20 07:10:26;;;;;;;;;;;;;;;22.66;30.72;100155.44;106770;1271;110321;-68
2022/05/20 07:12:57;;;;;;;;;;;;;;;23.30;30.44;100152.95;106612;1271;124416;-67
2022/05/20 07:15:27;;;;;;;;;;;;;;;24.10;29.75;100152.33;107362;1271;106836;-67
2022/05/20 07:17:58;;;;;;;;;;;;;;;24.78;28.96;100149.98;106308;1271;96573;-67
2022/05/20 07:20:29;;;;;;;;;;;;;;;25.23;28.41;100152.13;106131;1273;123960;-68
2022/05/20 07:22:59;;;;;;;;;;;;;;;25.44;28.21;100147.90;106272;1273;110415;-67
2022/05/20 07:25:30;;;;;;;;;;;;;;;25.72;28.19;100143.77;107727;1273;125190;-68
2022/05/20 07:28:00;;;;;;;;;;;;;;;25.93;27.71;100150.57;107770;1271;107644;-67
2022/05/20 07:30:31;;;;;;;;;;;;;;;26.07;27.59;100152.08;107069;1272;124336;-66
2022/05/20 07:33:01;;;;;;;;;;;;;;;26.18;27.46;100147.04;107813;1271;94853;-67
2022/05/20 07:35:32;;;;;;;;;;;;;;;26.27;27.38;100140.83;107794;1271;111204;-67
2022/05/20 07:38:02;;;;;;;;;;;;;;;26.35;27.33;100139.70;107678;1273;124886;-67
2022/05/20 07:40:33;;;;;;;;;;;;;;;26.49;27.17;100143.05;107802;1272;109129;-67
2022/05/20 07:43:03;;;;;;;;;;;;;;;26.68;27.11;100144.55;107689;1272;124826;-67
2022/05/20 07:45:34;;;;;;;;;;;;;;;26.87;26.94;100149.71;107505;1272;94868;-65
2022/05/20 07:48:06;;;;;;;;;;;;;;;27.12;26.71;100149.34;106297;1273;111368;-66
2022/05/20 07:50:39;;;;;;;;;;;;;;;27.54;26.74;100148.00;107687;1271;124131;-67
2022/05/20 07:53:23;;;;;;;;;;;;;;;27.77;26.40;100146.09;107732;1272;109041;-67
2022/05/20 07:55:56;;;;;;;;;;;;;;;27.93;26.32;100139.71;107608;1273;124120;-67
2022/05/20 07:58:28;;;;;;;;;;;;;;;28.49;25.73;100139.65;106475;1272;96483;-67
2022/05/20 08:01:20;;;;;;;;;;;;;;;29.51;25.12;100135.66;106159;1273;124619;-67
2022/05/20 08:06:43;;;;;;;;;;;;;;;31.04;23.98;100118.92;107697;1271;124329;-67
2022/05/20 08:09:13;;;;;;;;;;;;;;;31.76;23.41;100120.61;106410;1272;96501;-67
2022/05/20 08:11:43;;;;;;;;;;;;;;;32.56;22.64;100117.14;106289;1273;96468;-67
2022/05/20 08:14:14;;;;;;;;;;;;;;;33.42;22.00;100114.42;106115;1273;123926;-68
2022/05/20 08:16:44;;;;;;;;;;;;;;;34.07;21.36;100106.50;107592;1273;107344;-68
2022/05/20 08:19:15;;;;;;;;;;;;;;;34.80;20.86;100108.90;107627;1273;124214;-68
2022/05/20 08:21:45;;;;;;;;;;;;;;;35.39;20.13;100103.52;107728;1271;94772;-68
2022/05/20 08:24:16;;;;;;;;;;;;;;;35.94;19.71;100101.05;107793;1273;94680;-68
2022/05/20 08:26:46;;;;;;;;;;;;;;;36.50;19.25;100099.73;106583;1273;124148;-67
2022/05/20 08:29:17;;;;;;;;;;;;;;;36.88;18.87;100101.20;106172;1273;108085;-67
2022/05/20 08:31:47;;;;;;;;;;;;;;;37.19;18.14;100095.27;107652;1272;125356;-67
2022/05/20 08:34:18;;;;;;;;;;;;;;;37.28;17.97;100096.58;107097;1273;94837;-67
2022/05/20 08:36:48;;;;;;;;;;;;;;;37.47;17.98;100097.64;107630;1273;124179;-68
2022/05/20 08:39:19;;;;;;;;;;;;;;;37.64;17.66;100092.02;107807;1272;111218;-68
2022/05/20 08:41:51;;;;;;;;;;;;;;;37.75;17.51;100096.67;107797;1272;109204;-68
2022/05/20 08:44:23;;;;;;;;;;;;;;;37.79;17.18;100102.94;106480;1271;124039;-67
2022/05/20 08:47:06;;;;;;;;;;;;;;;37.66;16.69;100097.79;106614;1273;96470;-67
2022/05/20 08:49:37;;;;;;;;;;;;;;;37.22;17.14;100091.23;106180;1270;124084;-67
2022/05/20 08:52:08;;;;;;;;;;;;;;;37.16;17.18;100089.73;106257;1271;108518;-67
2022/05/20 08:54:39;;;;;;;;;;;;;;;37.08;17.32;100079.77;107675;1272;124672;-68
2022/05/20 08:57:32;;;;;;;;;;;;;;;37.05;17.36;100075.93;107466;1272;108935;-67
2022/05/20 09:00:04;;;;;;;;;;;;;;;37.13;17.34;100078.80;107285;1273;97240;-67
2022/05/20 09:02:35;;;;;;;;;;;;;;;37.01;17.34;100075.52;106055;1271;235972;-67
2022/05/20 09:05:15;;;;;;;;;;;;;;;36.96;17.32;100070.54;107772;1273;109750;-67
2022/05/20 09:07:57;;;;;;;;;;;;;;;37.01;17.39;100074.36;107738;1270;124723;-68
2022/05/20 09:10:34;;;;;;;;;;;;;;;37.00;17.24;100075.96;107764;1271;107691;-68
2022/05/20 09:13:09;;;;;;;;;;;;;;;36.88;17.19;100080.42;107730;1270;125168;-68
2022/05/20 09:15:46;;;;;;;;;;;;;;;36.78;17.27;100076.09;107875;1270;94596;-68
2022/05/20 09:18:30;;;;;;;;;;;;;;;36.64;17.58;100077.62;107857;1270;110889;-68
2022/05/20 09:21:00;;;;;;;;;;;;;;;36.67;17.75;100075.80;107872;1270;108837;-68
2022/05/20 09:23:31;;;;;;;;;;;;;;;36.70;17.59;100077.73;107629;1270;107743;-68
2022/05/20 09:26:04;;;;;;;;;;;;;;;36.64;17.54;100076.16;106132;1271;124220;-67
2022/05/20 09:28:37;;;;;;;;;;;;;;;36.53;17.48;100073.04;106244;1272;96556;-67
2022/05/20 09:31:22;;;;;;;;;;;;;;;36.43;17.58;100070.16;106164;1271;124155;-67
2022/05/20 09:33:54;;;;;;;;;;;;;;;36.47;17.56;100071.44;106375;1273;107589;-66
2022/05/20 09:36:34;;;;;;;;;;;;;;;36.36;17.47;100067.70;107691;1273;124338;-68
2022/05/20 09:39:12;;;;;;;;;;;;;;;36.47;17.56;100067.38;107777;1273;94536;-68
2022/05/20 09:41:47;;;;;;;;;;;;;;;36.28;17.56;100069.43;107168;1271;96475;-68
2022/05/20 09:44:19;;;;;;;;;;;;;;;35.83;17.83;100065.93;106572;1271;124068;-67
2022/05/20 09:46:52;;;;;;;;;;;;;;;35.34;17.93;100066.89;106314;1270;108261;-67
2022/05/20 09:49:32;;;;;;;;;;;;;;;35.24;18.21;100069.38;107764;1270;124241;-68
2022/05/20 09:52:03;;;;;;;;;;;;;;;35.20;18.35;100064.23;107847;1271;94945;-68
2022/05/20 09:54:35;;;;;;;;;;;;;;;35.24;18.37;100064.23;107797;1270;125009;-68
2022/05/20 09:57:11;;;;;;;;;;;;;;;34.99;18.50;100053.65;107859;1270;111125;-68
2022/05/20 09:59:46;;;;;;;;;;;;;;;34.54;18.64;100057.58;107099;1271;107819;-68
2022/05/20 10:02:22;;;;;;;;;;;;;;;34.44;18.96;100057.91;106320;1270;124097;-67
2022/05/20 10:05:00;;;;;;;;;;;;;;;34.57;19.43;100054.73;107861;1270;94690;-69
2022/05/20 10:07:36;;;;;;;;;;;;;;;34.91;19.30;100038.95;106878;1270;123986;-68
2022/05/20 10:10:09;;;;;;;;;;;;;;;35.14;19.32;100040.34;107591;1270;111078;-69
2022/05/20 10:12:41;;;;;;;;;;;;;;;35.25;19.28;100039.48;107160;1271;124460;-68
2022/05/20 10:15:14;;;;;;;;;;;;;;;35.37;19.20;100035.69;106298;1271;109175;-68
2022/05/20 10:18:07;;;;;;;;;;;;;;;35.36;19.37;100030.23;107898;1270;94901;-67
2022/05/20 10:20:40;;;;;;;;;;;;;;;34.84;19.20;100028.33;107644;1270;124019;-68
2022/05/20 10:23:14;;;;;;;;;;;;;;;34.22;19.99;100030.36;107821;1271;111188;-69
2022/05/20 10:25:46;;;;;;;;;;;;;;;33.74;20.47;100031.48;107805;1270;124145;-68
2022/05/20 10:34:00;;;;;;;;;;;;;;;33.18;21.66;100033.20;107690;1270;94789;-66
2022/05/20 10:36:34;;;;;;;;;;;;;;;33.25;21.77;100025.23;106227;1270;124250;-67
2022/05/20 10:39:10;;;;;;;;;;;;;;;33.20;21.83;100025.61;106349;1270;107777;-67
2022/05/20 10:42:14;;;;;;;;;;;;;;;33.20;22.27;100019.60;106548;1270;107641;-67
2022/05/20 10:50:46;;;;;;;;;;;;;;;32.79;22.92;100019.73;105858;1276;123933;-67
2022/05/20 10:53:21;;;;;;;;;;;;;;;32.40;23.19;100016.84;106703;1274;107883;-67
2022/05/20 10:55:59;;;;;;;;;;;;;;;31.93;23.66;100012.44;106283;1276;125235;-67
2022/05/20 10:58:49;;;;;;;;;;;;;;;31.77;24.11;100002.11;106034;1276;96503;-67
2022/05/20 11:01:27;;;;;;;;;;;;;;;31.90;24.23;99997.64;105995;1276;124145;-68
2022/05/20 11:04:11;;;;;;;;;;;;;;;31.80;24.42;99997.64;107345;1276;110877;-68
2022/05/20 11:06:58;;;;;;;;;;;;;;;31.91;24.62;99997.71;105865;1277;124378;-68
2022/05/20 11:09:35;;;;;;;;;;;;;;;31.91;24.54;100004.10;107432;1276;109066;-68
2022/05/20 11:12:06;;;;;;;;;;;;;;;31.98;24.67;99994.77;106872;1276;96506;-68
2022/05/20 11:14:53;;;;;;;;;;;;;;;31.97;24.90;99989.11;107408;1276;125476;-68
2022/05/20 11:17:42;;;;;;;;;;;;;;;32.04;25.13;99986.80;106656;1276;110178;-68
2022/05/20 11:20:28;;;;;;;;;;;;;;;32.05;24.80;99992.30;106947;1276;124211;-68
2022/05/20 11:23:17;;;;;;;;;;;;;;;31.94;24.88;99986.95;106658;1276;108982;-67
2022/05/20 11:25:55;;;;;;;;;;;;;;;31.81;24.87;99987.60;106084;1270;124138;-68
2022/05/20 11:28:38;;;;;;;;;;;;;;;31.63;24.85;99978.96;107894;1270;95033;-68
2022/05/20 11:31:15;;;;;;;;;;;;;;;31.42;25.10;99975.77;107785;1270;123725;-68
2022/05/20 11:34:00;;;;;;;;;;;;;;;31.22;25.20;99976.15;106939;1270;108093;-67
2022/05/20 11:36:41;;;;;;;;;;;;;;;31.07;25.42;99984.67;106166;1270;126218;-67
2022/05/20 11:39:31;;;;;;;;;;;;;;;30.92;25.67;99979.15;106266;1271;97163;-67
2022/05/20 11:42:11;;;;;;;;;;;;;;;30.90;25.83;99979.03;106295;1270;96448;-68
2022/05/20 11:44:50;;;;;;;;;;;;;;;30.99;25.92;99972.89;107261;1270;123754;-67
2022/05/20 11:47:34;;;;;;;;;;;;;;;31.06;25.78;99974.22;106525;1270;108709;-70
2022/05/20 11:50:20;;;;;;;;;;;;;;;31.02;25.50;99967.70;107761;1270;123878;-68
2022/05/20 11:52:58;;;;;;;;;;;;;;;30.96;25.11;99966.85;106508;1271;96529;-69
2022/05/20 11:55:33;;;;;;;;;;;;;;;30.84;25.11;99952.08;106167;1271;124413;-67
2022/05/20 11:58:05;;;;;;;;;;;;;;;30.68;25.61;99955.96;106989;1270;111278;-67
2022/05/20 12:00:38;;;;;;;;;;;;;;;30.56;25.79;99954.10;106235;1270;125804;-68
2022/05/20 12:03:12;;;;;;;;;;;;;;;30.40;26.12;99958.26;107861;1270;107923;-68
2022/05/20 12:05:45;;;;;;;;;;;;;;;30.28;26.38;99950.98;106503;1270;96696;-68
2022/05/20 12:08:29;;;;;;;;;;;;;;;30.30;26.75;99951.84;106187;1270;123795;-68
2022/05/20 12:11:19;;;;;;;;;;;;;;;30.39;26.66;99946.98;106305;1271;110784;-68
2022/05/20 12:14:00;;;;;;;;;;;;;;;30.45;26.52;99945.49;106265;1271;124459;-67
2022/05/20 12:16:31;;;;;;;;;;;;;;;30.38;26.51;99952.11;106298;1271;109066;-66
2022/05/20 12:24:51;;;;;;;;;;;;;;;30.64;26.18;99933.66;107777;1269;123869;-68
2022/05/20 12:27:41;;;;;;;;;;;;;;;30.62;26.03;99944.31;107877;1270;110039;-67
2022/05/20 12:30:28;;;;;;;;;;;;;;;30.48;25.65;99936.02;107876;1270;108098;-68
2022/05/20 12:32:59;;;;;;;;;;;;;;;30.37;26.10;99940.67;106489;1271;96591;-68
2022/05/20 12:35:32;;;;;;;;;;;;;;;30.48;26.33;99939.70;106431;1270;96483;-67
2022/05/20 12:38:16;;;;;;;;;;;;;;;30.45;26.44;99936.52;106213;1271;123711;-67
2022/05/20 12:41:12;;;;;;;;;;;;;;;30.35;26.51;99939.73;106329;1271;109539;-67
2022/05/20 12:43:45;;;;;;;;;;;;;;;30.37;26.64;99942.90;106188;1271;123954;-68
2022/05/20 12:46:18;;;;;;;;;;;;;;;30.46;26.53;99938.92;106462;1271;96478;-68
2022/05/20 12:48:50;;;;;;;;;;;;;;;30.37;25.72;99945.58;107625;1270;124920;-68
2022/05/20 12:51:21;;;;;;;;;;;;;;;30.15;26.04;99946.48;106438;1270;111324;-67
2022/05/20 12:53:51;;;;;;;;;;;;;;;30.13;26.25;99938.77;106950;1271;108743;-67
2022/05/20 12:56:29;;;;;;;;;;;;;;;30.21;26.15;99934.05;107194;1271;124450;-68
2022/05/20 12:59:16;;;;;;;;;;;;;;;30.24;25.85;99929.95;107118;1271;95097;-67
2022/05/20 13:01:57;;;;;;;;;;;;;;;30.07;25.54;99933.40;107750;1270;123962;-68
2022/05/20 13:04:30;;;;;;;;;;;;;;;29.94;25.54;99923.45;107883;1270;109874;-67
2022/05/20 13:07:01;;;;;;;;;;;;;;;29.91;25.78;99920.92;107765;1270;124739;-68
2022/05/20 13:09:38;;;;;;;;;;;;;;;29.82;25.86;99921.31;107880;1270;108341;-67
2022/05/20 13:12:14;;;;;;;;;;;;;;;29.74;26.00;99928.09;107821;1270;95234;-68
2022/05/20 13:14:46;;;;;;;;;;;;;;;29.77;26.28;99932.50;106745;1271;123611;-67
2022/05/20 13:17:16;;;;;;;;;;;;;;;29.75;26.62;99931.73;107149;1270;109573;-68
2022/05/20 13:19:49;;;;;;;;;;;;;;;29.70;27.02;99927.59;107797;1270;124019;-67
2022/05/20 13:22:22;;;;;;;;;;;;;;;29.55;27.04;99930.77;107867;1270;108866;-67
2022/05/20 13:24:57;;;;;;;;;;;;;;;29.48;27.28;99929.58;107031;1270;125616;-69
2022/05/20 13:27:28;;;;;;;;;;;;;;;29.51;27.43;99930.94;106406;1271;96602;-68
2022/05/20 13:30:10;;;;;;;;;;;;;;;29.49;27.44;99936.82;106338;1271;109865;-67
2022/05/20 13:32:40;;;;;;;;;;;;;;;29.45;27.51;99928.27;106564;1271;123943;-67
2022/05/20 13:35:11;;;;;;;;;;;;;;;29.33;27.45;99924.40;107865;1270;107649;-67
2022/05/20 13:37:47;;;;;;;;;;;;;;;29.16;27.61;99929.67;106353;1270;124033;-70
2022/05/20 13:40:19;;;;;;;;;;;;;;;29.04;27.67;99933.67;106434;1271;96482;-69
2022/05/20 13:42:51;;;;;;;;;;;;;;;28.84;27.69;99925.36;106694;1270;124151;-68
2022/05/20 13:49:12;;;;;;;;;;;;;;;28.66;27.62;99925.41;106586;1271;109151;-68
2022/05/20 13:51:06;;;;;;;;;;;;;;;28.28;27.85;99929.28;106658;1270;96469;-68
2022/05/20 13:53:37;;;;;;;;;;;;;;;28.18;28.04;99930.82;107789;1270;94779;-68
2022/05/20 13:56:09;;;;;;;;;;;;;;;28.14;28.14;99930.45;107740;1271;123876;-68
2022/05/20 13:58:41;;;;;;;;;;;;;;;28.13;28.24;99931.86;107832;1271;108038;-68
2022/05/20 14:01:13;;;;;;;;;;;;;;;28.11;28.02;99922.48;107781;1270;123887;-68
2022/05/20 14:03:46;;;;;;;;;;;;;;;28.02;27.79;99919.39;106623;1271;96459;-68